sensor_id;sensor_type;location;lat;lon;timestamp;P1;durP1;ratioP1;P2;durP2;ratioP2
14348;SDS011;7258;50.376;8.742;2023-01-15T00:01:45;6.63;;;5.77;;
14348;SDS011;7258;50.376;8.742;2023-01-15T00:03:48;7.63;;;5.47;;
14348;SDS011;7258;50.376;8.742;2023-01-15T00:05:51;6.77;;;5.40;;
14348;SDS011;7258;50.376;8.742;2023-01-15T00:07:54;5.90;;;5.30;;
14348;SDS011;7258;50.376;8.742;2023-01-15T00:09:57;5.60;;;4.93;;
14348;SDS011;7258;50.376;8.742;2023-01-15T00:12:00;6.17;;;5.47;;
14348;SDS011;7258;50.376;8.742;2023-01-15T00:14:03;8.67;;;5.83;;
14348;SDS011;7258;50.376;8.742;2023-01-15T00:16:09;7.13;;;5.30;;
14348;SDS011;7258;50.376;8.742;2023-01-15T00:18:14;6.80;;;5.40;;
14348;SDS011;7258;50.376;8.742;2023-01-15T00:20:17;8.47;;;5.97;;
14348;SDS011;7258;50.376;8.742;2023-01-15T00:22:20;7.30;;;5.77;;
14348;SDS011;7258;50.376;8.742;2023-01-15T00:24:23;7.90;;;5.90;;
14348;SDS011;7258;50.376;8.742;2023-01-15T00:26:43;8.07;;;6.30;;
14348;SDS011;7258;50.376;8.742;2023-01-15T00:29:04;6.63;;;5.90;;
14348;SDS011;7258;50.376;8.742;2023-01-15T00:31:09;7.80;;;5.67;;
14348;SDS011;7258;50.376;8.742;2023-01-15T00:33:14;7.53;;;5.23;;
14348;SDS011;7258;50.376;8.742;2023-01-15T00:35:18;5.43;;;4.93;;
14348;SDS011;7258;50.376;8.742;2023-01-15T00:37:23;4.73;;;4.33;;
14348;SDS011;7258;50.376;8.742;2023-01-15T00:39:26;4.97;;;4.17;;
14348;SDS011;7258;50.376;8.742;2023-01-15T00:41:29;5.87;;;3.93;;
14348;SDS011;7258;50.376;8.742;2023-01-15T00:43:32;4.00;;;3.20;;
14348;SDS011;7258;50.376;8.742;2023-01-15T00:45:35;3.33;;;3.00;;
14348;SDS011;7258;50.376;8.742;2023-01-15T00:47:40;3.93;;;2.90;;
14348;SDS011;7258;50.376;8.742;2023-01-15T00:49:45;3.60;;;2.97;;
14348;SDS011;7258;50.376;8.742;2023-01-15T00:51:48;3.63;;;2.53;;
14348;SDS011;7258;50.376;8.742;2023-01-15T00:53:51;3.20;;;2.80;;
14348;SDS011;7258;50.376;8.742;2023-01-15T00:55:54;2.47;;;2.03;;
14348;SDS011;7258;50.376;8.742;2023-01-15T00:57:57;1.33;;;1.23;;
14348;SDS011;7258;50.376;8.742;2023-01-15T01:00:00;1.27;;;1.17;;
14348;SDS011;7258;50.376;8.742;2023-01-15T01:02:04;0.80;;;0.80;;
14348;SDS011;7258;50.376;8.742;2023-01-15T01:04:08;0.93;;;0.90;;
14348;SDS011;7258;50.376;8.742;2023-01-15T01:06:11;0.73;;;0.73;;
14348;SDS011;7258;50.376;8.742;2023-01-15T01:08:14;1.10;;;1.00;;
14348;SDS011;7258;50.376;8.742;2023-01-15T01:10:17;1.37;;;1.00;;
14348;SDS011;7258;50.376;8.742;2023-01-15T01:12:20;0.70;;;0.70;;
14348;SDS011;7258;50.376;8.742;2023-01-15T01:14:23;0.90;;;0.70;;
14348;SDS011;7258;50.376;8.742;2023-01-15T01:16:27;0.83;;;0.83;;
14348;SDS011;7258;50.376;8.742;2023-01-15T01:18:33;2.70;;;0.90;;
14348;SDS011;7258;50.376;8.742;2023-01-15T01:20:37;0.97;;;0.90;;
14348;SDS011;7258;50.376;8.742;2023-01-15T01:22:40;1.30;;;1.10;;
14348;SDS011;7258;50.376;8.742;2023-01-15T01:24:43;1.00;;;0.90;;
14348;SDS011;7258;50.376;8.742;2023-01-15T01:26:46;0.70;;;0.70;;
14348;SDS011;7258;50.376;8.742;2023-01-15T01:28:52;0.93;;;0.90;;
14348;SDS011;7258;50.376;8.742;2023-01-15T01:30:55;1.63;;;1.00;;
14348;SDS011;7258;50.376;8.742;2023-01-15T01:32:58;1.17;;;0.90;;
14348;SDS011;7258;50.376;8.742;2023-01-15T01:35:01;1.40;;;1.20;;
14348;SDS011;7258;50.376;8.742;2023-01-15T01:37:05;1.43;;;1.30;;
14348;SDS011;7258;50.376;8.742;2023-01-15T01:39:11;1.43;;;1.33;;
14348;SDS011;7258;50.376;8.742;2023-01-15T01:41:15;2.00;;;1.27;;
14348;SDS011;7258;50.376;8.742;2023-01-15T01:43:20;1.20;;;1.10;;
14348;SDS011;7258;50.376;8.742;2023-01-15T01:45:25;1.20;;;1.10;;
14348;SDS011;7258;50.376;8.742;2023-01-15T01:47:32;1.00;;;0.90;;
14348;SDS011;7258;50.376;8.742;2023-01-15T01:49:36;0.50;;;0.50;;
14348;SDS011;7258;50.376;8.742;2023-01-15T01:51:44;2.07;;;0.80;;
14348;SDS011;7258;50.376;8.742;2023-01-15T01:53:53;0.80;;;0.80;;
14348;SDS011;7258;50.376;8.742;2023-01-15T01:55:57;2.10;;;0.80;;
14348;SDS011;7258;50.376;8.742;2023-01-15T01:58:03;0.70;;;0.70;;
14348;SDS011;7258;50.376;8.742;2023-01-15T02:00:08;0.77;;;0.77;;
14348;SDS011;7258;50.376;8.742;2023-01-15T02:02:11;1.43;;;0.90;;
14348;SDS011;7258;50.376;8.742;2023-01-15T02:04:15;1.90;;;0.70;;
14348;SDS011;7258;50.376;8.742;2023-01-15T02:06:21;1.00;;;0.90;;
14348;SDS011;7258;50.376;8.742;2023-01-15T02:08:27;2.67;;;0.77;;
14348;SDS011;7258;50.376;8.742;2023-01-15T02:10:33;1.17;;;0.90;;
14348;SDS011;7258;50.376;8.742;2023-01-15T02:12:36;0.50;;;0.50;;
14348;SDS011;7258;50.376;8.742;2023-01-15T02:14:42;0.80;;;0.80;;
14348;SDS011;7258;50.376;8.742;2023-01-15T02:16:53;0.60;;;0.60;;
14348;SDS011;7258;50.376;8.742;2023-01-15T02:18:59;0.67;;;0.67;;
14348;SDS011;7258;50.376;8.742;2023-01-15T02:21:09;0.97;;;0.70;;
14348;SDS011;7258;50.376;8.742;2023-01-15T02:23:30;0.97;;;0.90;;
14348;SDS011;7258;50.376;8.742;2023-01-15T02:25:53;1.03;;;0.83;;
14348;SDS011;7258;50.376;8.742;2023-01-15T02:28:09;1.33;;;0.73;;
14348;SDS011;7258;50.376;8.742;2023-01-15T02:30:18;1.23;;;0.70;;
14348;SDS011;7258;50.376;8.742;2023-01-15T02:32:28;0.70;;;0.70;;
14348;SDS011;7258;50.376;8.742;2023-01-15T02:34:35;1.70;;;0.90;;
14348;SDS011;7258;50.376;8.742;2023-01-15T02:36:43;0.63;;;0.63;;
14348;SDS011;7258;50.376;8.742;2023-01-15T02:38:50;2.10;;;0.90;;
14348;SDS011;7258;50.376;8.742;2023-01-15T02:40:57;0.90;;;0.90;;
14348;SDS011;7258;50.376;8.742;2023-01-15T02:43:03;1.33;;;0.90;;
14348;SDS011;7258;50.376;8.742;2023-01-15T02:45:11;0.83;;;0.60;;
14348;SDS011;7258;50.376;8.742;2023-01-15T02:47:16;0.50;;;0.50;;
14348;SDS011;7258;50.376;8.742;2023-01-15T02:49:22;0.67;;;0.50;;
14348;SDS011;7258;50.376;8.742;2023-01-15T02:51:27;0.70;;;0.60;;
14348;SDS011;7258;50.376;8.742;2023-01-15T02:53:36;0.70;;;0.70;;
14348;SDS011;7258;50.376;8.742;2023-01-15T02:55:42;0.43;;;0.30;;
14348;SDS011;7258;50.376;8.742;2023-01-15T02:57:47;0.40;;;0.40;;
14348;SDS011;7258;50.376;8.742;2023-01-15T02:59:54;0.40;;;0.40;;
14348;SDS011;7258;50.376;8.742;2023-01-15T03:02:02;0.37;;;0.30;;
14348;SDS011;7258;50.376;8.742;2023-01-15T03:04:09;0.50;;;0.50;;
14348;SDS011;7258;50.376;8.742;2023-01-15T03:06:20;0.40;;;0.40;;
14348;SDS011;7258;50.376;8.742;2023-01-15T03:08:33;0.30;;;0.30;;
14348;SDS011;7258;50.376;8.742;2023-01-15T03:10:39;0.67;;;0.40;;
14348;SDS011;7258;50.376;8.742;2023-01-15T03:12:48;0.40;;;0.33;;
14348;SDS011;7258;50.376;8.742;2023-01-15T03:15:07;0.90;;;0.60;;
14348;SDS011;7258;50.376;8.742;2023-01-15T03:17:36;0.70;;;0.70;;
14348;SDS011;7258;50.376;8.742;2023-01-15T03:19:44;0.70;;;0.70;;
14348;SDS011;7258;50.376;8.742;2023-01-15T03:21:54;1.13;;;0.53;;
14348;SDS011;7258;50.376;8.742;2023-01-15T03:23:59;0.83;;;0.40;;
14348;SDS011;7258;50.376;8.742;2023-01-15T03:26:06;1.37;;;0.50;;
14348;SDS011;7258;50.376;8.742;2023-01-15T03:28:09;0.40;;;0.40;;
14348;SDS011;7258;50.376;8.742;2023-01-15T03:30:15;0.47;;;0.47;;
14348;SDS011;7258;50.376;8.742;2023-01-15T03:32:19;0.67;;;0.40;;
14348;SDS011;7258;50.376;8.742;2023-01-15T03:34:24;0.63;;;0.50;;
14348;SDS011;7258;50.376;8.742;2023-01-15T03:36:32;1.53;;;0.30;;
14348;SDS011;7258;50.376;8.742;2023-01-15T03:38:36;0.53;;;0.40;;
14348;SDS011;7258;50.376;8.742;2023-01-15T03:40:42;0.80;;;0.60;;
14348;SDS011;7258;50.376;8.742;2023-01-15T03:42:53;1.37;;;0.40;;
14348;SDS011;7258;50.376;8.742;2023-01-15T03:45:17;1.73;;;0.57;;
14348;SDS011;7258;50.376;8.742;2023-01-15T03:47:28;0.30;;;0.30;;
14348;SDS011;7258;50.376;8.742;2023-01-15T03:49:43;1.53;;;0.50;;
14348;SDS011;7258;50.376;8.742;2023-01-15T03:51:53;0.50;;;0.50;;
14348;SDS011;7258;50.376;8.742;2023-01-15T03:54:02;0.53;;;0.40;;
14348;SDS011;7258;50.376;8.742;2023-01-15T03:56:13;1.27;;;0.30;;
14348;SDS011;7258;50.376;8.742;2023-01-15T03:58:24;1.50;;;0.40;;
14348;SDS011;7258;50.376;8.742;2023-01-15T04:00:31;1.17;;;0.50;;
14348;SDS011;7258;50.376;8.742;2023-01-15T04:02:37;0.43;;;0.43;;
14348;SDS011;7258;50.376;8.742;2023-01-15T04:04:44;0.53;;;0.53;;
14348;SDS011;7258;50.376;8.742;2023-01-15T04:06:48;0.80;;;0.40;;
14348;SDS011;7258;50.376;8.742;2023-01-15T04:08:51;0.93;;;0.70;;
14348;SDS011;7258;50.376;8.742;2023-01-15T04:10:56;0.67;;;0.47;;
14348;SDS011;7258;50.376;8.742;2023-01-15T04:13:00;1.70;;;0.63;;
14348;SDS011;7258;50.376;8.742;2023-01-15T04:15:03;1.30;;;0.50;;
14348;SDS011;7258;50.376;8.742;2023-01-15T04:17:06;1.00;;;0.60;;
14348;SDS011;7258;50.376;8.742;2023-01-15T04:19:09;0.70;;;0.40;;
14348;SDS011;7258;50.376;8.742;2023-01-15T04:21:13;2.23;;;0.83;;
14348;SDS011;7258;50.376;8.742;2023-01-15T04:23:17;0.53;;;0.33;;
14348;SDS011;7258;50.376;8.742;2023-01-15T04:25:20;1.27;;;0.60;;
14348;SDS011;7258;50.376;8.742;2023-01-15T04:27:23;0.93;;;0.43;;
14348;SDS011;7258;50.376;8.742;2023-01-15T04:29:27;1.17;;;0.40;;
14348;SDS011;7258;50.376;8.742;2023-01-15T04:31:29;0.90;;;0.60;;
14348;SDS011;7258;50.376;8.742;2023-01-15T04:33:33;0.97;;;0.70;;
14348;SDS011;7258;50.376;8.742;2023-01-15T04:35:38;0.40;;;0.40;;
14348;SDS011;7258;50.376;8.742;2023-01-15T04:37:42;0.93;;;0.50;;
14348;SDS011;7258;50.376;8.742;2023-01-15T04:39:45;1.03;;;0.60;;
14348;SDS011;7258;50.376;8.742;2023-01-15T04:41:48;1.60;;;0.50;;
14348;SDS011;7258;50.376;8.742;2023-01-15T04:44:09;1.00;;;0.60;;
14348;SDS011;7258;50.376;8.742;2023-01-15T04:46:10;0.30;;;0.30;;
14348;SDS011;7258;50.376;8.742;2023-01-15T04:48:13;0.60;;;0.53;;
14348;SDS011;7258;50.376;8.742;2023-01-15T04:50:16;1.17;;;0.63;;
14348;SDS011;7258;50.376;8.742;2023-01-15T04:52:19;0.57;;;0.40;;
14348;SDS011;7258;50.376;8.742;2023-01-15T04:54:23;1.60;;;0.40;;
14348;SDS011;7258;50.376;8.742;2023-01-15T04:56:26;1.43;;;0.80;;
14348;SDS011;7258;50.376;8.742;2023-01-15T04:58:29;0.70;;;0.70;;
14348;SDS011;7258;50.376;8.742;2023-01-15T05:00:33;1.23;;;0.60;;
14348;SDS011;7258;50.376;8.742;2023-01-15T05:02:35;0.47;;;0.47;;
14348;SDS011;7258;50.376;8.742;2023-01-15T05:04:39;1.00;;;0.40;;
14348;SDS011;7258;50.376;8.742;2023-01-15T05:06:41;0.60;;;0.60;;
14348;SDS011;7258;50.376;8.742;2023-01-15T05:08:44;1.33;;;0.67;;
14348;SDS011;7258;50.376;8.742;2023-01-15T05:10:49;1.00;;;0.60;;
14348;SDS011;7258;50.376;8.742;2023-01-15T05:12:51;1.87;;;0.60;;
14348;SDS011;7258;50.376;8.742;2023-01-15T05:14:54;1.17;;;0.40;;
14348;SDS011;7258;50.376;8.742;2023-01-15T05:16:57;0.73;;;0.60;;
14348;SDS011;7258;50.376;8.742;2023-01-15T05:19:01;1.20;;;0.43;;
14348;SDS011;7258;50.376;8.742;2023-01-15T05:21:12;1.33;;;0.63;;
14348;SDS011;7258;50.376;8.742;2023-01-15T05:23:16;0.47;;;0.47;;
14348;SDS011;7258;50.376;8.742;2023-01-15T05:25:19;2.10;;;0.93;;
14348;SDS011;7258;50.376;8.742;2023-01-15T05:27:24;1.60;;;0.50;;
14348;SDS011;7258;50.376;8.742;2023-01-15T05:29:27;1.70;;;0.90;;
14348;SDS011;7258;50.376;8.742;2023-01-15T05:31:30;1.87;;;0.50;;
14348;SDS011;7258;50.376;8.742;2023-01-15T05:33:34;1.77;;;0.60;;
14348;SDS011;7258;50.376;8.742;2023-01-15T05:35:37;0.53;;;0.53;;
14348;SDS011;7258;50.376;8.742;2023-01-15T05:37:40;0.87;;;0.50;;
14348;SDS011;7258;50.376;8.742;2023-01-15T05:39:43;0.77;;;0.50;;
14348;SDS011;7258;50.376;8.742;2023-01-15T05:41:45;1.90;;;0.60;;
14348;SDS011;7258;50.376;8.742;2023-01-15T05:43:53;0.67;;;0.50;;
14348;SDS011;7258;50.376;8.742;2023-01-15T05:45:59;2.23;;;0.80;;
14348;SDS011;7258;50.376;8.742;2023-01-15T05:48:03;1.00;;;0.60;;
14348;SDS011;7258;50.376;8.742;2023-01-15T05:50:06;3.43;;;0.73;;
14348;SDS011;7258;50.376;8.742;2023-01-15T05:52:10;1.10;;;0.50;;
14348;SDS011;7258;50.376;8.742;2023-01-15T05:54:14;0.83;;;0.50;;
14348;SDS011;7258;50.376;8.742;2023-01-15T05:56:17;0.87;;;0.60;;
14348;SDS011;7258;50.376;8.742;2023-01-15T05:58:20;1.60;;;0.60;;
14348;SDS011;7258;50.376;8.742;2023-01-15T06:00:25;2.13;;;0.80;;
14348;SDS011;7258;50.376;8.742;2023-01-15T06:02:30;1.93;;;0.80;;
14348;SDS011;7258;50.376;8.742;2023-01-15T06:04:33;1.13;;;0.90;;
14348;SDS011;7258;50.376;8.742;2023-01-15T06:06:38;1.43;;;1.17;;
14348;SDS011;7258;50.376;8.742;2023-01-15T06:08:42;1.07;;;0.60;;
14348;SDS011;7258;50.376;8.742;2023-01-15T06:10:45;1.13;;;0.67;;
14348;SDS011;7258;50.376;8.742;2023-01-15T06:12:48;2.27;;;0.70;;
14348;SDS011;7258;50.376;8.742;2023-01-15T06:14:50;0.67;;;0.40;;
14348;SDS011;7258;50.376;8.742;2023-01-15T06:16:55;0.60;;;0.60;;
14348;SDS011;7258;50.376;8.742;2023-01-15T06:18:59;0.60;;;0.40;;
14348;SDS011;7258;50.376;8.742;2023-01-15T06:21:04;1.50;;;0.40;;
14348;SDS011;7258;50.376;8.742;2023-01-15T06:23:08;0.77;;;0.50;;
14348;SDS011;7258;50.376;8.742;2023-01-15T06:25:11;0.77;;;0.70;;
14348;SDS011;7258;50.376;8.742;2023-01-15T06:27:14;1.17;;;0.60;;
14348;SDS011;7258;50.376;8.742;2023-01-15T06:29:17;1.40;;;0.40;;
14348;SDS011;7258;50.376;8.742;2023-01-15T06:31:21;0.40;;;0.40;;
14348;SDS011;7258;50.376;8.742;2023-01-15T06:33:28;1.80;;;0.50;;
14348;SDS011;7258;50.376;8.742;2023-01-15T06:35:31;1.27;;;0.50;;
14348;SDS011;7258;50.376;8.742;2023-01-15T06:37:34;0.93;;;0.60;;
14348;SDS011;7258;50.376;8.742;2023-01-15T06:39:37;0.87;;;0.43;;
14348;SDS011;7258;50.376;8.742;2023-01-15T06:41:40;0.37;;;0.20;;
14348;SDS011;7258;50.376;8.742;2023-01-15T06:44:00;1.77;;;0.50;;
14348;SDS011;7258;50.376;8.742;2023-01-15T06:46:20;0.80;;;0.50;;
14348;SDS011;7258;50.376;8.742;2023-01-15T06:48:42;1.20;;;0.67;;
14348;SDS011;7258;50.376;8.742;2023-01-15T06:50:47;0.50;;;0.50;;
14348;SDS011;7258;50.376;8.742;2023-01-15T06:52:50;1.03;;;0.50;;
14348;SDS011;7258;50.376;8.742;2023-01-15T06:54:53;0.50;;;0.50;;
14348;SDS011;7258;50.376;8.742;2023-01-15T06:56:56;0.40;;;0.40;;
14348;SDS011;7258;50.376;8.742;2023-01-15T06:58:59;0.90;;;0.70;;
14348;SDS011;7258;50.376;8.742;2023-01-15T07:01:05;1.77;;;0.70;;
14348;SDS011;7258;50.376;8.742;2023-01-15T07:03:10;0.90;;;0.50;;
14348;SDS011;7258;50.376;8.742;2023-01-15T07:05:15;3.43;;;0.73;;
14348;SDS011;7258;50.376;8.742;2023-01-15T07:07:18;0.97;;;0.50;;
14348;SDS011;7258;50.376;8.742;2023-01-15T07:09:22;0.50;;;0.50;;
14348;SDS011;7258;50.376;8.742;2023-01-15T07:11:25;0.90;;;0.47;;
14348;SDS011;7258;50.376;8.742;2023-01-15T07:13:28;0.90;;;0.50;;
14348;SDS011;7258;50.376;8.742;2023-01-15T07:15:30;1.37;;;0.50;;
14348;SDS011;7258;50.376;8.742;2023-01-15T07:17:35;0.40;;;0.33;;
14348;SDS011;7258;50.376;8.742;2023-01-15T07:19:37;1.90;;;0.57;;
14348;SDS011;7258;50.376;8.742;2023-01-15T07:21:42;0.67;;;0.53;;
14348;SDS011;7258;50.376;8.742;2023-01-15T07:23:45;0.30;;;0.30;;
14348;SDS011;7258;50.376;8.742;2023-01-15T07:25:48;1.30;;;0.40;;
14348;SDS011;7258;50.376;8.742;2023-01-15T07:27:51;1.63;;;0.70;;
14348;SDS011;7258;50.376;8.742;2023-01-15T07:29:54;1.63;;;0.70;;
14348;SDS011;7258;50.376;8.742;2023-01-15T07:31:57;0.63;;;0.50;;
14348;SDS011;7258;50.376;8.742;2023-01-15T07:34:00;0.90;;;0.37;;
14348;SDS011;7258;50.376;8.742;2023-01-15T07:36:03;0.50;;;0.50;;
14348;SDS011;7258;50.376;8.742;2023-01-15T07:38:08;0.73;;;0.60;;
14348;SDS011;7258;50.376;8.742;2023-01-15T07:40:11;2.03;;;0.70;;
14348;SDS011;7258;50.376;8.742;2023-01-15T07:42:14;2.63;;;0.80;;
14348;SDS011;7258;50.376;8.742;2023-01-15T07:44:34;0.83;;;0.50;;
14348;SDS011;7258;50.376;8.742;2023-01-15T07:46:55;1.47;;;0.60;;
14348;SDS011;7258;50.376;8.742;2023-01-15T07:49:15;0.33;;;0.33;;
14348;SDS011;7258;50.376;8.742;2023-01-15T07:51:36;0.97;;;0.97;;
14348;SDS011;7258;50.376;8.742;2023-01-15T07:53:40;1.33;;;0.40;;
14348;SDS011;7258;50.376;8.742;2023-01-15T07:55:43;1.07;;;0.53;;
14348;SDS011;7258;50.376;8.742;2023-01-15T07:57:46;2.13;;;1.80;;
14348;SDS011;7258;50.376;8.742;2023-01-15T07:59:49;4.87;;;0.90;;
14348;SDS011;7258;50.376;8.742;2023-01-15T08:01:52;2.03;;;0.60;;
14348;SDS011;7258;50.376;8.742;2023-01-15T08:03:55;4.13;;;0.90;;
14348;SDS011;7258;50.376;8.742;2023-01-15T08:05:58;5.30;;;3.60;;
14348;SDS011;7258;50.376;8.742;2023-01-15T08:08:04;4.50;;;3.00;;
14348;SDS011;7258;50.376;8.742;2023-01-15T08:10:09;6.83;;;5.93;;
14348;SDS011;7258;50.376;8.742;2023-01-15T08:12:14;6.93;;;5.77;;
14348;SDS011;7258;50.376;8.742;2023-01-15T08:14:34;2.50;;;2.30;;
14348;SDS011;7258;50.376;8.742;2023-01-15T08:16:54;1.73;;;1.63;;
14348;SDS011;7258;50.376;8.742;2023-01-15T08:18:57;2.03;;;1.93;;
14348;SDS011;7258;50.376;8.742;2023-01-15T08:21:00;1.83;;;1.67;;
14348;SDS011;7258;50.376;8.742;2023-01-15T08:23:03;5.70;;;4.77;;
14348;SDS011;7258;50.376;8.742;2023-01-15T08:25:07;18.60;;;13.57;;
14348;SDS011;7258;50.376;8.742;2023-01-15T08:27:12;11.73;;;7.60;;
14348;SDS011;7258;50.376;8.742;2023-01-15T08:29:15;13.80;;;8.43;;
14348;SDS011;7258;50.376;8.742;2023-01-15T08:31:18;14.10;;;8.03;;
14348;SDS011;7258;50.376;8.742;2023-01-15T08:33:21;4.37;;;3.40;;
14348;SDS011;7258;50.376;8.742;2023-01-15T08:35:24;21.73;;;12.27;;
14348;SDS011;7258;50.376;8.742;2023-01-15T08:37:27;10.50;;;8.17;;
14348;SDS011;7258;50.376;8.742;2023-01-15T08:39:30;11.77;;;6.67;;
14348;SDS011;7258;50.376;8.742;2023-01-15T08:41:34;26.10;;;15.50;;
14348;SDS011;7258;50.376;8.742;2023-01-15T08:43:37;7.87;;;5.10;;
14348;SDS011;7258;50.376;8.742;2023-01-15T08:45:40;4.63;;;2.97;;
14348;SDS011;7258;50.376;8.742;2023-01-15T08:47:43;1.70;;;1.60;;
14348;SDS011;7258;50.376;8.742;2023-01-15T08:49:46;3.00;;;1.67;;
14348;SDS011;7258;50.376;8.742;2023-01-15T08:51:49;3.33;;;3.03;;
14348;SDS011;7258;50.376;8.742;2023-01-15T08:53:53;3.00;;;2.50;;
14348;SDS011;7258;50.376;8.742;2023-01-15T08:55:56;5.97;;;5.37;;
14348;SDS011;7258;50.376;8.742;2023-01-15T08:58:00;1.27;;;1.00;;
14348;SDS011;7258;50.376;8.742;2023-01-15T09:00:04;2.63;;;2.43;;
14348;SDS011;7258;50.376;8.742;2023-01-15T09:02:10;2.50;;;2.30;;
14348;SDS011;7258;50.376;8.742;2023-01-15T09:04:18;1.50;;;1.40;;
14348;SDS011;7258;50.376;8.742;2023-01-15T09:06:22;7.33;;;4.87;;
14348;SDS011;7258;50.376;8.742;2023-01-15T09:08:25;1.40;;;1.30;;
14348;SDS011;7258;50.376;8.742;2023-01-15T09:10:29;0.90;;;0.90;;
14348;SDS011;7258;50.376;8.742;2023-01-15T09:12:32;0.70;;;0.70;;
14348;SDS011;7258;50.376;8.742;2023-01-15T09:14:36;1.30;;;1.20;;
14348;SDS011;7258;50.376;8.742;2023-01-15T09:16:59;2.23;;;0.90;;
14348;SDS011;7258;50.376;8.742;2023-01-15T09:19:03;1.73;;;1.20;;
14348;SDS011;7258;50.376;8.742;2023-01-15T09:21:07;1.40;;;1.30;;
14348;SDS011;7258;50.376;8.742;2023-01-15T09:23:11;0.70;;;0.70;;
14348;SDS011;7258;50.376;8.742;2023-01-15T09:25:14;2.70;;;2.50;;
14348;SDS011;7258;50.376;8.742;2023-01-15T09:27:19;1.47;;;1.37;;
14348;SDS011;7258;50.376;8.742;2023-01-15T09:29:22;1.73;;;1.00;;
14348;SDS011;7258;50.376;8.742;2023-01-15T09:31:27;2.97;;;1.00;;
14348;SDS011;7258;50.376;8.742;2023-01-15T09:33:30;0.60;;;0.60;;
14348;SDS011;7258;50.376;8.742;2023-01-15T09:35:33;2.40;;;0.87;;
14348;SDS011;7258;50.376;8.742;2023-01-15T09:37:36;1.37;;;0.50;;
14348;SDS011;7258;50.376;8.742;2023-01-15T09:39:39;2.83;;;1.20;;
14348;SDS011;7258;50.376;8.742;2023-01-15T09:41:52;2.90;;;1.23;;
14348;SDS011;7258;50.376;8.742;2023-01-15T09:44:15;2.27;;;1.00;;
14348;SDS011;7258;50.376;8.742;2023-01-15T09:46:28;0.80;;;0.80;;
14348;SDS011;7258;50.376;8.742;2023-01-15T09:48:42;2.43;;;0.60;;
14348;SDS011;7258;50.376;8.742;2023-01-15T09:51:01;0.57;;;0.57;;
14348;SDS011;7258;50.376;8.742;2023-01-15T09:53:17;0.63;;;0.63;;
14348;SDS011;7258;50.376;8.742;2023-01-15T09:55:39;0.73;;;0.73;;
14348;SDS011;7258;50.376;8.742;2023-01-15T09:57:48;1.97;;;0.80;;
14348;SDS011;7258;50.376;8.742;2023-01-15T09:59:53;1.73;;;0.83;;
14348;SDS011;7258;50.376;8.742;2023-01-15T10:02:10;1.70;;;0.60;;
14348;SDS011;7258;50.376;8.742;2023-01-15T10:04:28;0.87;;;0.70;;
14348;SDS011;7258;50.376;8.742;2023-01-15T10:07:26;1.00;;;0.33;;
14348;SDS011;7258;50.376;8.742;2023-01-15T10:09:42;1.00;;;0.90;;
14348;SDS011;7258;50.376;8.742;2023-01-15T10:11:47;1.97;;;1.00;;
14348;SDS011;7258;50.376;8.742;2023-01-15T10:19:23;1.33;;;0.67;;
14348;SDS011;7258;50.376;8.742;2023-01-15T10:21:46;0.93;;;0.93;;
14348;SDS011;7258;50.376;8.742;2023-01-15T10:23:56;0.77;;;0.70;;
14348;SDS011;7258;50.376;8.742;2023-01-15T10:29:04;1.53;;;0.70;;
14348;SDS011;7258;50.376;8.742;2023-01-15T10:31:15;1.60;;;0.70;;
14348;SDS011;7258;50.376;8.742;2023-01-15T10:33:27;0.83;;;0.70;;
14348;SDS011;7258;50.376;8.742;2023-01-15T10:35:54;1.93;;;0.80;;
14348;SDS011;7258;50.376;8.742;2023-01-15T10:38:12;1.37;;;0.60;;
14348;SDS011;7258;50.376;8.742;2023-01-15T10:40:30;2.70;;;0.60;;
14348;SDS011;7258;50.376;8.742;2023-01-15T10:42:47;0.80;;;0.60;;
14348;SDS011;7258;50.376;8.742;2023-01-15T10:45:01;2.90;;;0.80;;
14348;SDS011;7258;50.376;8.742;2023-01-15T10:47:19;2.90;;;0.77;;
14348;SDS011;7258;50.376;8.742;2023-01-15T10:49:38;1.07;;;0.37;;
14348;SDS011;7258;50.376;8.742;2023-01-15T10:51:46;2.63;;;0.40;;
14348;SDS011;7258;50.376;8.742;2023-01-15T10:54:00;1.70;;;0.80;;
14348;SDS011;7258;50.376;8.742;2023-01-15T10:56:39;2.00;;;0.63;;
14348;SDS011;7258;50.376;8.742;2023-01-15T10:59:01;2.60;;;0.70;;
14348;SDS011;7258;50.376;8.742;2023-01-15T11:01:27;1.87;;;0.67;;
14348;SDS011;7258;50.376;8.742;2023-01-15T11:03:35;2.07;;;0.80;;
14348;SDS011;7258;50.376;8.742;2023-01-15T11:05:53;4.83;;;0.87;;
14348;SDS011;7258;50.376;8.742;2023-01-15T11:08:00;2.47;;;0.93;;
14348;SDS011;7258;50.376;8.742;2023-01-15T11:10:28;2.07;;;0.70;;
14348;SDS011;7258;50.376;8.742;2023-01-15T11:12:33;1.63;;;0.70;;
14348;SDS011;7258;50.376;8.742;2023-01-15T11:15:21;2.33;;;0.80;;
14348;SDS011;7258;50.376;8.742;2023-01-15T11:18:18;3.17;;;0.83;;
14348;SDS011;7258;50.376;8.742;2023-01-15T11:23:33;3.37;;;1.10;;
14348;SDS011;7258;50.376;8.742;2023-01-15T11:25:46;2.80;;;0.87;;
14348;SDS011;7258;50.376;8.742;2023-01-15T11:27:52;3.33;;;0.87;;
14348;SDS011;7258;50.376;8.742;2023-01-15T11:29:57;1.93;;;1.00;;
14348;SDS011;7258;50.376;8.742;2023-01-15T11:34:51;2.83;;;1.30;;
14348;SDS011;7258;50.376;8.742;2023-01-15T11:37:12;2.27;;;1.07;;
14348;SDS011;7258;50.376;8.742;2023-01-15T11:39:21;2.93;;;1.10;;
14348;SDS011;7258;50.376;8.742;2023-01-15T11:41:29;2.33;;;1.00;;
14348;SDS011;7258;50.376;8.742;2023-01-15T11:46:35;2.50;;;1.00;;
14348;SDS011;7258;50.376;8.742;2023-01-15T11:49:07;3.73;;;1.00;;
14348;SDS011;7258;50.376;8.742;2023-01-15T11:51:29;3.70;;;1.10;;
14348;SDS011;7258;50.376;8.742;2023-01-15T11:53:47;1.27;;;1.00;;
14348;SDS011;7258;50.376;8.742;2023-01-15T11:55:59;3.27;;;1.07;;
14348;SDS011;7258;50.376;8.742;2023-01-15T11:58:07;3.00;;;0.77;;
14348;SDS011;7258;50.376;8.742;2023-01-15T12:00:22;2.60;;;0.93;;
14348;SDS011;7258;50.376;8.742;2023-01-15T12:02:31;2.90;;;0.90;;
14348;SDS011;7258;50.376;8.742;2023-01-15T12:04:39;2.03;;;1.17;;
14348;SDS011;7258;50.376;8.742;2023-01-15T12:06:51;2.50;;;1.00;;
14348;SDS011;7258;50.376;8.742;2023-01-15T12:09:00;3.20;;;0.90;;
14348;SDS011;7258;50.376;8.742;2023-01-15T12:11:11;4.47;;;1.40;;
14348;SDS011;7258;50.376;8.742;2023-01-15T12:13:33;2.27;;;1.40;;
14348;SDS011;7258;50.376;8.742;2023-01-15T12:15:48;2.17;;;0.80;;
14348;SDS011;7258;50.376;8.742;2023-01-15T12:26:09;1.40;;;0.93;;
14348;SDS011;7258;50.376;8.742;2023-01-15T12:28:24;2.57;;;1.10;;
14348;SDS011;7258;50.376;8.742;2023-01-15T12:30:40;2.23;;;1.00;;
14348;SDS011;7258;50.376;8.742;2023-01-15T12:33:10;2.87;;;0.90;;
14348;SDS011;7258;50.376;8.742;2023-01-15T12:35:32;1.63;;;1.00;;
14348;SDS011;7258;50.376;8.742;2023-01-15T12:37:51;4.80;;;1.30;;
14348;SDS011;7258;50.376;8.742;2023-01-15T12:40:02;2.73;;;0.80;;
14348;SDS011;7258;50.376;8.742;2023-01-15T12:42:22;2.53;;;0.90;;
14348;SDS011;7258;50.376;8.742;2023-01-15T12:44:45;0.97;;;0.90;;
14348;SDS011;7258;50.376;8.742;2023-01-15T12:47:09;5.47;;;1.30;;
14348;SDS011;7258;50.376;8.742;2023-01-15T12:49:47;3.80;;;0.97;;
14348;SDS011;7258;50.376;8.742;2023-01-15T12:52:01;1.53;;;0.87;;
14348;SDS011;7258;50.376;8.742;2023-01-15T12:54:14;3.63;;;1.03;;
14348;SDS011;7258;50.376;8.742;2023-01-15T12:56:28;2.70;;;0.63;;
14348;SDS011;7258;50.376;8.742;2023-01-15T12:58:40;2.70;;;1.20;;
14348;SDS011;7258;50.376;8.742;2023-01-15T13:00:59;3.50;;;1.10;;
14348;SDS011;7258;50.376;8.742;2023-01-15T13:03:27;2.27;;;0.90;;
14348;SDS011;7258;50.376;8.742;2023-01-15T13:05:37;3.60;;;1.17;;
14348;SDS011;7258;50.376;8.742;2023-01-15T13:08:18;3.50;;;1.00;;
14348;SDS011;7258;50.376;8.742;2023-01-15T13:10:29;2.20;;;1.13;;
14348;SDS011;7258;50.376;8.742;2023-01-15T13:12:45;3.00;;;1.10;;
14348;SDS011;7258;50.376;8.742;2023-01-15T13:15:14;1.30;;;0.90;;
14348;SDS011;7258;50.376;8.742;2023-01-15T13:17:28;1.47;;;0.90;;
14348;SDS011;7258;50.376;8.742;2023-01-15T13:19:46;2.10;;;0.80;;
14348;SDS011;7258;50.376;8.742;2023-01-15T13:22:22;2.53;;;0.87;;
14348;SDS011;7258;50.376;8.742;2023-01-15T13:24:35;1.90;;;0.77;;
14348;SDS011;7258;50.376;8.742;2023-01-15T13:27:06;2.83;;;0.80;;
14348;SDS011;7258;50.376;8.742;2023-01-15T13:32:37;2.80;;;1.30;;
14348;SDS011;7258;50.376;8.742;2023-01-15T13:34:46;3.33;;;1.10;;